PSBRB SBCH-SBCR
Flight info
| Callsign | PSBRB |
|---|---|
| Flight time | N/A |
| Altitude | FL250 |
| Route | UTNIP UM654 ANSOK |
| Aircraft | BE20/L-VRDW/C |
Departure
| Time | 2026-04-27 19:27 |
|---|---|
| Airport | Serafin Enoss Bertaso Airport (SBCH) |
Arrival
| Time | N/A |
|---|---|
| Airport | Corumbá International Airport (SBCR) |
| Time | Latitude | Longitude | Altitude | Speed | Heading |
|---|---|---|---|---|---|
| 2026-04-27 19:25 | -27.13524 | -52.64892 | 2151 ft | 0 kts | 279° |
| 2026-04-27 19:26 | -27.13478 | -52.65206 | 2151 ft | 79 kts | 279° |
| 2026-04-27 19:26 | -27.13334 | -52.65970 | 2367 ft | 103 kts | 297° |
| 2026-04-27 19:26 | -27.13028 | -52.66657 | 2735 ft | 115 kts | 302° |
| 2026-04-27 19:27 | -27.12334 | -52.67288 | 2906 ft | 143 kts | 339° |
| 2026-04-27 19:27 | -27.11259 | -52.67368 | 2932 ft | 173 kts | 20° |
| 2026-04-27 19:27 | -27.10297 | -52.66529 | 3189 ft | 179 kts | 53° |
| 2026-04-27 19:27 | -27.09561 | -52.65358 | 3474 ft | 188 kts | 57° |
| 2026-04-27 19:28 | -27.08833 | -52.64102 | 3767 ft | 198 kts | 59° |
| 2026-04-27 19:28 | -27.08022 | -52.62817 | 4057 ft | 207 kts | 53° |
| 2026-04-27 19:28 | -27.07070 | -52.61572 | 4346 ft | 214 kts | 49° |
| 2026-04-27 19:28 | -27.06010 | -52.60376 | 4628 ft | 218 kts | 44° |
| 2026-04-27 19:29 | -27.04877 | -52.59228 | 4908 ft | 222 kts | 41° |
| 2026-04-27 19:29 | -27.03688 | -52.58103 | 5187 ft | 224 kts | 40° |
| 2026-04-27 19:29 | -27.02471 | -52.57003 | 5461 ft | 226 kts | 39° |
| 2026-04-27 19:29 | -27.01232 | -52.55912 | 5733 ft | 228 kts | 38° |
| 2026-04-27 19:30 | -26.99970 | -52.54823 | 6009 ft | 229 kts | 38° |
| 2026-04-27 19:30 | -26.98706 | -52.53744 | 6284 ft | 230 kts | 37° |
| 2026-04-27 19:30 | -26.97422 | -52.52661 | 6558 ft | 231 kts | 36° |
| 2026-04-27 19:30 | -26.96139 | -52.51587 | 6833 ft | 232 kts | 38° |
| 2026-04-27 19:31 | -26.94850 | -52.50512 | 7112 ft | 232 kts | 38° |
| 2026-04-27 19:31 | -26.93553 | -52.49431 | 7387 ft | 233 kts | 38° |
| 2026-04-27 19:31 | -26.92254 | -52.48351 | 7664 ft | 234 kts | 37° |
| 2026-04-27 19:31 | -26.90948 | -52.47271 | 7935 ft | 235 kts | 37° |
| 2026-04-27 19:32 | -26.89631 | -52.46179 | 8211 ft | 236 kts | 37° |
| 2026-04-27 19:32 | -26.88320 | -52.45088 | 8486 ft | 237 kts | 37° |
| 2026-04-27 19:32 | -26.86997 | -52.43989 | 8760 ft | 238 kts | 37° |
| 2026-04-27 19:32 | -26.85665 | -52.42885 | 9037 ft | 239 kts | 36° |
| 2026-04-27 19:33 | -26.84332 | -52.41778 | 9313 ft | 240 kts | 36° |
| 2026-04-27 19:33 | -26.83440 | -52.41040 | 9490 ft | 240 kts | 35° |
| 2026-04-27 19:33 | -26.81624 | -52.39551 | 9884 ft | 248 kts | 36° |
| 2026-04-27 19:33 | -26.80234 | -52.38421 | 10143 ft | 247 kts | 35° |
| 2026-04-27 19:34 | -26.78859 | -52.37282 | 10413 ft | 246 kts | 35° |
| 2026-04-27 19:34 | -26.77488 | -52.36144 | 10690 ft | 245 kts | 35° |
| 2026-04-27 19:34 | -26.76119 | -52.35006 | 10963 ft | 245 kts | 34° |
| 2026-04-27 19:34 | -26.74753 | -52.33873 | 11239 ft | 245 kts | 34° |
| 2026-04-27 19:35 | -26.73383 | -52.32739 | 11514 ft | 245 kts | 33° |
| 2026-04-27 19:35 | -26.72023 | -52.31608 | 11788 ft | 245 kts | 33° |
| 2026-04-27 19:35 | -26.70655 | -52.30475 | 12061 ft | 245 kts | 33° |
| 2026-04-27 19:35 | -26.69293 | -52.29351 | 12335 ft | 244 kts | 33° |
| 2026-04-27 19:36 | -26.67924 | -52.28221 | 12609 ft | 244 kts | 32° |
| 2026-04-27 19:36 | -26.66560 | -52.27098 | 12884 ft | 244 kts | 32° |
| 2026-04-27 19:36 | -26.65199 | -52.25980 | 13154 ft | 244 kts | 32° |
| 2026-04-27 19:36 | -26.63833 | -52.24857 | 13430 ft | 244 kts | 31° |
| 2026-04-27 19:37 | -26.62471 | -52.23737 | 13706 ft | 243 kts | 31° |
| 2026-04-27 19:37 | -26.61110 | -52.22617 | 13981 ft | 243 kts | 31° |
| 2026-04-27 19:37 | -26.59751 | -52.21495 | 14254 ft | 243 kts | 31° |
| 2026-04-27 19:37 | -26.58398 | -52.20379 | 14529 ft | 242 kts | 30° |
| 2026-04-27 19:38 | -26.57046 | -52.19266 | 14802 ft | 242 kts | 30° |
| 2026-04-27 19:38 | -26.55696 | -52.18153 | 15076 ft | 241 kts | 30° |
| 2026-04-27 19:38 | -26.54348 | -52.17046 | 15350 ft | 240 kts | 29° |
| 2026-04-27 19:38 | -26.53009 | -52.15947 | 15624 ft | 239 kts | 29° |
| 2026-04-27 19:39 | -26.51679 | -52.14855 | 15898 ft | 238 kts | 28° |
| 2026-04-27 19:39 | -26.50348 | -52.13763 | 16171 ft | 237 kts | 28° |
| 2026-04-27 19:39 | -26.49020 | -52.12674 | 16444 ft | 236 kts | 28° |